sensor_id;sensor_type;location;lat;lon;timestamp;P1;durP1;ratioP1;P2;durP2;ratioP2
44508;SDS011;30214;52.246;14.408;2023-04-10T00:02:26;14.32;;;9.43;;
44508;SDS011;30214;52.246;14.408;2023-04-10T00:04:53;12.43;;;8.85;;
44508;SDS011;30214;52.246;14.408;2023-04-10T00:07:21;10.13;;;8.35;;
44508;SDS011;30214;52.246;14.408;2023-04-10T00:09:48;14.05;;;9.25;;
44508;SDS011;30214;52.246;14.408;2023-04-10T00:12:15;16.15;;;9.50;;
44508;SDS011;30214;52.246;14.408;2023-04-10T00:14:42;13.98;;;9.43;;
44508;SDS011;30214;52.246;14.408;2023-04-10T00:17:10;20.98;;;13.43;;
44508;SDS011;30214;52.246;14.408;2023-04-10T00:19:37;20.85;;;12.02;;
44508;SDS011;30214;52.246;14.408;2023-04-10T00:22:04;20.75;;;12.88;;
44508;SDS011;30214;52.246;14.408;2023-04-10T00:24:32;28.65;;;16.23;;
44508;SDS011;30214;52.246;14.408;2023-04-10T00:26:59;40.80;;;21.27;;
44508;SDS011;30214;52.246;14.408;2023-04-10T00:29:27;33.42;;;21.20;;
44508;SDS011;30214;52.246;14.408;2023-04-10T00:31:54;26.73;;;18.27;;
44508;SDS011;30214;52.246;14.408;2023-04-10T00:34:22;27.80;;;18.10;;
44508;SDS011;30214;52.246;14.408;2023-04-10T00:36:50;25.73;;;16.90;;
44508;SDS011;30214;52.246;14.408;2023-04-10T00:39:17;25.05;;;16.95;;
44508;SDS011;30214;52.246;14.408;2023-04-10T00:41:45;27.35;;;17.88;;
44508;SDS011;30214;52.246;14.408;2023-04-10T00:44:12;28.73;;;17.40;;
44508;SDS011;30214;52.246;14.408;2023-04-10T00:46:39;29.13;;;16.17;;
44508;SDS011;30214;52.246;14.408;2023-04-10T00:49:07;26.55;;;16.90;;
44508;SDS011;30214;52.246;14.408;2023-04-10T00:51:36;34.10;;;16.67;;
44508;SDS011;30214;52.246;14.408;2023-04-10T00:54:03;52.65;;;17.88;;
44508;SDS011;30214;52.246;14.408;2023-04-10T00:56:31;64.05;;;18.88;;
44508;SDS011;30214;52.246;14.408;2023-04-10T00:59:02;45.58;;;18.42;;
44508;SDS011;30214;52.246;14.408;2023-04-10T01:01:29;46.45;;;19.13;;
44508;SDS011;30214;52.246;14.408;2023-04-10T01:03:56;83.30;;;20.70;;
44508;SDS011;30214;52.246;14.408;2023-04-10T01:06:26;43.30;;;18.45;;
44508;SDS011;30214;52.246;14.408;2023-04-10T01:09:15;50.40;;;19.20;;
44508;SDS011;30214;52.246;14.408;2023-04-10T01:11:54;73.15;;;19.80;;
44508;SDS011;30214;52.246;14.408;2023-04-10T01:14:32;60.72;;;19.30;;
44508;SDS011;30214;52.246;14.408;2023-04-10T01:17:19;69.85;;;19.95;;
44508;SDS011;30214;52.246;14.408;2023-04-10T01:19:57;45.20;;;19.38;;
44508;SDS011;30214;52.246;14.408;2023-04-10T01:22:35;108.82;;;21.15;;
44508;SDS011;30214;52.246;14.408;2023-04-10T01:28:19;43.00;;;20.15;;
44508;SDS011;30214;52.246;14.408;2023-04-10T01:31:23;47.00;;;20.13;;
44508;SDS011;30214;52.246;14.408;2023-04-10T01:33:56;65.05;;;21.42;;
44508;SDS011;30214;52.246;14.408;2023-04-10T01:36:30;59.03;;;20.07;;
44508;SDS011;30214;52.246;14.408;2023-04-10T01:39:03;59.38;;;19.25;;
44508;SDS011;30214;52.246;14.408;2023-04-10T01:41:32;71.57;;;21.20;;
44508;SDS011;30214;52.246;14.408;2023-04-10T01:44:00;42.70;;;19.90;;
44508;SDS011;30214;52.246;14.408;2023-04-10T01:46:34;51.95;;;20.17;;
44508;SDS011;30214;52.246;14.408;2023-04-10T01:49:03;71.82;;;21.98;;
44508;SDS011;30214;52.246;14.408;2023-04-10T01:51:31;53.13;;;20.52;;
44508;SDS011;30214;52.246;14.408;2023-04-10T01:54:06;52.70;;;20.30;;
44508;SDS011;30214;52.246;14.408;2023-04-10T01:56:33;65.80;;;20.45;;
44508;SDS011;30214;52.246;14.408;2023-04-10T01:59:01;47.72;;;21.20;;
44508;SDS011;30214;52.246;14.408;2023-04-10T02:01:31;37.83;;;21.05;;
44508;SDS011;30214;52.246;14.408;2023-04-10T02:04:00;57.42;;;22.75;;
44508;SDS011;30214;52.246;14.408;2023-04-10T02:06:28;41.80;;;24.10;;
44508;SDS011;30214;52.246;14.408;2023-04-10T02:09:09;85.20;;;24.65;;
44508;SDS011;30214;52.246;14.408;2023-04-10T02:11:46;68.47;;;26.65;;
44508;SDS011;30214;52.246;14.408;2023-04-10T02:14:20;55.53;;;25.77;;
44508;SDS011;30214;52.246;14.408;2023-04-10T02:16:52;48.55;;;24.83;;
44508;SDS011;30214;52.246;14.408;2023-04-10T02:19:22;44.30;;;23.30;;
44508;SDS011;30214;52.246;14.408;2023-04-10T02:21:52;39.25;;;23.60;;
44508;SDS011;30214;52.246;14.408;2023-04-10T02:24:21;63.95;;;23.60;;
44508;SDS011;30214;52.246;14.408;2023-04-10T02:26:49;55.03;;;23.90;;
44508;SDS011;30214;52.246;14.408;2023-04-10T02:29:18;73.45;;;25.35;;
44508;SDS011;30214;52.246;14.408;2023-04-10T02:31:45;67.97;;;26.40;;
44508;SDS011;30214;52.246;14.408;2023-04-10T02:34:12;56.95;;;23.85;;
44508;SDS011;30214;52.246;14.408;2023-04-10T02:36:41;69.10;;;24.90;;
44508;SDS011;30214;52.246;14.408;2023-04-10T02:39:10;67.38;;;25.92;;
44508;SDS011;30214;52.246;14.408;2023-04-10T02:41:45;70.80;;;25.95;;
44508;SDS011;30214;52.246;14.408;2023-04-10T02:44:13;58.97;;;26.00;;
44508;SDS011;30214;52.246;14.408;2023-04-10T02:46:41;59.67;;;25.50;;
44508;SDS011;30214;52.246;14.408;2023-04-10T02:49:09;62.28;;;26.50;;
44508;SDS011;30214;52.246;14.408;2023-04-10T02:51:37;72.78;;;24.85;;
44508;SDS011;30214;52.246;14.408;2023-04-10T02:54:05;64.82;;;24.83;;
44508;SDS011;30214;52.246;14.408;2023-04-10T02:56:33;72.72;;;25.38;;
44508;SDS011;30214;52.246;14.408;2023-04-10T02:59:00;93.22;;;25.35;;
44508;SDS011;30214;52.246;14.408;2023-04-10T03:01:29;48.00;;;21.98;;
44508;SDS011;30214;52.246;14.408;2023-04-10T03:03:56;84.95;;;23.23;;
44508;SDS011;30214;52.246;14.408;2023-04-10T03:06:27;47.67;;;22.58;;
44508;SDS011;30214;52.246;14.408;2023-04-10T03:08:55;51.22;;;22.73;;
44508;SDS011;30214;52.246;14.408;2023-04-10T03:11:24;95.68;;;23.38;;
44508;SDS011;30214;52.246;14.408;2023-04-10T03:13:51;38.65;;;20.80;;
44508;SDS011;30214;52.246;14.408;2023-04-10T03:16:18;50.58;;;22.23;;
44508;SDS011;30214;52.246;14.408;2023-04-10T03:18:45;66.00;;;23.40;;
44508;SDS011;30214;52.246;14.408;2023-04-10T03:21:13;42.67;;;21.80;;
44508;SDS011;30214;52.246;14.408;2023-04-10T03:23:40;54.75;;;23.13;;
44508;SDS011;30214;52.246;14.408;2023-04-10T03:26:11;58.08;;;21.88;;
44508;SDS011;30214;52.246;14.408;2023-04-10T03:28:41;65.03;;;21.95;;
44508;SDS011;30214;52.246;14.408;2023-04-10T03:31:09;59.47;;;21.48;;
44508;SDS011;30214;52.246;14.408;2023-04-10T03:33:38;57.88;;;21.88;;
44508;SDS011;30214;52.246;14.408;2023-04-10T03:36:06;47.13;;;22.13;;
44508;SDS011;30214;52.246;14.408;2023-04-10T03:38:34;47.30;;;20.98;;
44508;SDS011;30214;52.246;14.408;2023-04-10T03:41:02;43.85;;;20.92;;
44508;SDS011;30214;52.246;14.408;2023-04-10T03:43:31;48.25;;;20.13;;
44508;SDS011;30214;52.246;14.408;2023-04-10T03:46:00;57.15;;;20.70;;
44508;SDS011;30214;52.246;14.408;2023-04-10T03:48:28;48.42;;;19.92;;
44508;SDS011;30214;52.246;14.408;2023-04-10T03:50:56;61.53;;;21.33;;
44508;SDS011;30214;52.246;14.408;2023-04-10T03:53:23;47.33;;;19.80;;
44508;SDS011;30214;52.246;14.408;2023-04-10T03:55:52;44.85;;;20.27;;
44508;SDS011;30214;52.246;14.408;2023-04-10T03:58:21;44.70;;;20.35;;
44508;SDS011;30214;52.246;14.408;2023-04-10T04:00:49;41.45;;;19.77;;
44508;SDS011;30214;52.246;14.408;2023-04-10T04:03:25;37.53;;;19.52;;
44508;SDS011;30214;52.246;14.408;2023-04-10T04:05:53;40.60;;;18.65;;
44508;SDS011;30214;52.246;14.408;2023-04-10T04:08:34;48.10;;;20.58;;
44508;SDS011;30214;52.246;14.408;2023-04-10T04:11:09;53.38;;;21.77;;
44508;SDS011;30214;52.246;14.408;2023-04-10T04:13:59;41.03;;;19.33;;
44508;SDS011;30214;52.246;14.408;2023-04-10T04:16:43;61.08;;;19.65;;
44508;SDS011;30214;52.246;14.408;2023-04-10T04:19:30;41.78;;;18.70;;
44508;SDS011;30214;52.246;14.408;2023-04-10T04:22:20;46.53;;;20.30;;
44508;SDS011;30214;52.246;14.408;2023-04-10T04:25:08;55.05;;;20.65;;
44508;SDS011;30214;52.246;14.408;2023-04-10T04:27:50;35.95;;;19.60;;
44508;SDS011;30214;52.246;14.408;2023-04-10T04:30:39;35.67;;;20.83;;
44508;SDS011;30214;52.246;14.408;2023-04-10T04:33:16;55.45;;;21.00;;
44508;SDS011;30214;52.246;14.408;2023-04-10T04:36:00;43.60;;;20.75;;
44508;SDS011;30214;52.246;14.408;2023-04-10T04:38:42;42.40;;;22.58;;
44508;SDS011;30214;52.246;14.408;2023-04-10T04:41:29;57.20;;;22.42;;
44508;SDS011;30214;52.246;14.408;2023-04-10T04:44:14;95.65;;;22.38;;
44508;SDS011;30214;52.246;14.408;2023-04-10T04:46:56;41.10;;;21.15;;
44508;SDS011;30214;52.246;14.408;2023-04-10T04:49:26;39.70;;;22.15;;
44508;SDS011;30214;52.246;14.408;2023-04-10T04:52:13;73.78;;;22.40;;
44508;SDS011;30214;52.246;14.408;2023-04-10T04:54:55;51.53;;;21.08;;
44508;SDS011;30214;52.246;14.408;2023-04-10T04:57:22;78.43;;;23.00;;
44508;SDS011;30214;52.246;14.408;2023-04-10T05:00:02;73.57;;;22.65;;
44508;SDS011;30214;52.246;14.408;2023-04-10T05:02:47;66.00;;;21.50;;
44508;SDS011;30214;52.246;14.408;2023-04-10T05:05:46;47.00;;;21.67;;
44508;SDS011;30214;52.246;14.408;2023-04-10T05:08:35;118.43;;;23.55;;
44508;SDS011;30214;52.246;14.408;2023-04-10T05:11:21;75.25;;;23.35;;
44508;SDS011;30214;52.246;14.408;2023-04-10T05:14:14;70.63;;;23.27;;
44508;SDS011;30214;52.246;14.408;2023-04-10T05:16:50;113.47;;;23.77;;
44508;SDS011;30214;52.246;14.408;2023-04-10T05:19:36;148.52;;;23.15;;
44508;SDS011;30214;52.246;14.408;2023-04-10T05:22:21;217.48;;;23.65;;
44508;SDS011;30214;52.246;14.408;2023-04-10T05:27:55;193.93;;;25.08;;
44508;SDS011;30214;52.246;14.408;2023-04-10T05:30:38;237.60;;;25.35;;
44508;SDS011;30214;52.246;14.408;2023-04-10T05:33:05;89.47;;;24.48;;
44508;SDS011;30214;52.246;14.408;2023-04-10T05:35:58;105.80;;;25.55;;
44508;SDS011;30214;52.246;14.408;2023-04-10T05:38:34;77.85;;;24.50;;
44508;SDS011;30214;52.246;14.408;2023-04-10T05:41:26;101.55;;;24.42;;
44508;SDS011;30214;52.246;14.408;2023-04-10T05:44:12;283.80;;;26.02;;
44508;SDS011;30214;52.246;14.408;2023-04-10T05:46:57;175.50;;;21.63;;
44508;SDS011;30214;52.246;14.408;2023-04-10T05:49:39;125.55;;;22.42;;
44508;SDS011;30214;52.246;14.408;2023-04-10T05:52:26;123.40;;;19.90;;
44508;SDS011;30214;52.246;14.408;2023-04-10T05:55:11;111.13;;;17.60;;
44508;SDS011;30214;52.246;14.408;2023-04-10T05:58:11;181.20;;;20.17;;
44508;SDS011;30214;52.246;14.408;2023-04-10T06:00:58;206.82;;;19.88;;
44508;SDS011;30214;52.246;14.408;2023-04-10T06:03:39;152.05;;;20.70;;
44508;SDS011;30214;52.246;14.408;2023-04-10T06:06:06;82.80;;;20.23;;
44508;SDS011;30214;52.246;14.408;2023-04-10T06:08:34;177.85;;;20.10;;
44508;SDS011;30214;52.246;14.408;2023-04-10T06:11:01;208.65;;;20.10;;
44508;SDS011;30214;52.246;14.408;2023-04-10T06:13:31;114.32;;;18.27;;
44508;SDS011;30214;52.246;14.408;2023-04-10T06:16:00;133.52;;;19.65;;
44508;SDS011;30214;52.246;14.408;2023-04-10T06:18:28;240.02;;;24.85;;
44508;SDS011;30214;52.246;14.408;2023-04-10T06:20:55;132.30;;;22.08;;
44508;SDS011;30214;52.246;14.408;2023-04-10T06:23:25;162.25;;;24.10;;
44508;SDS011;30214;52.246;14.408;2023-04-10T06:25:53;103.10;;;24.45;;
44508;SDS011;30214;52.246;14.408;2023-04-10T06:28:20;202.35;;;24.65;;
44508;SDS011;30214;52.246;14.408;2023-04-10T06:30:52;205.10;;;24.50;;
44508;SDS011;30214;52.246;14.408;2023-04-10T06:33:27;177.68;;;24.27;;
44508;SDS011;30214;52.246;14.408;2023-04-10T06:35:55;85.85;;;22.92;;
44508;SDS011;30214;52.246;14.408;2023-04-10T06:38:22;98.63;;;24.48;;
44508;SDS011;30214;52.246;14.408;2023-04-10T06:40:50;104.68;;;24.27;;
44508;SDS011;30214;52.246;14.408;2023-04-10T06:43:17;62.10;;;25.52;;
44508;SDS011;30214;52.246;14.408;2023-04-10T06:45:44;44.22;;;22.85;;
44508;SDS011;30214;52.246;14.408;2023-04-10T06:48:12;41.10;;;24.13;;
44508;SDS011;30214;52.246;14.408;2023-04-10T06:50:39;35.80;;;22.73;;
44508;SDS011;30214;52.246;14.408;2023-04-10T06:53:07;37.42;;;24.50;;
44508;SDS011;30214;52.246;14.408;2023-04-10T06:55:35;35.25;;;22.77;;
44508;SDS011;30214;52.246;14.408;2023-04-10T06:58:03;30.15;;;19.98;;
44508;SDS011;30214;52.246;14.408;2023-04-10T07:00:30;32.67;;;21.33;;
44508;SDS011;30214;52.246;14.408;2023-04-10T07:02:57;29.90;;;20.58;;
44508;SDS011;30214;52.246;14.408;2023-04-10T07:05:26;32.83;;;20.70;;
44508;SDS011;30214;52.246;14.408;2023-04-10T07:07:53;32.05;;;20.88;;
44508;SDS011;30214;52.246;14.408;2023-04-10T07:10:20;32.53;;;21.90;;
44508;SDS011;30214;52.246;14.408;2023-04-10T07:12:47;34.63;;;22.08;;
44508;SDS011;30214;52.246;14.408;2023-04-10T07:15:14;32.75;;;21.63;;
44508;SDS011;30214;52.246;14.408;2023-04-10T07:17:42;34.03;;;21.38;;
44508;SDS011;30214;52.246;14.408;2023-04-10T07:20:09;30.38;;;20.60;;
44508;SDS011;30214;52.246;14.408;2023-04-10T07:22:39;31.77;;;21.50;;
44508;SDS011;30214;52.246;14.408;2023-04-10T07:25:06;33.13;;;22.10;;
44508;SDS011;30214;52.246;14.408;2023-04-10T07:27:34;31.50;;;21.50;;
44508;SDS011;30214;52.246;14.408;2023-04-10T07:30:02;29.10;;;20.10;;
44508;SDS011;30214;52.246;14.408;2023-04-10T07:32:30;30.15;;;20.20;;
44508;SDS011;30214;52.246;14.408;2023-04-10T07:34:58;28.77;;;20.10;;
44508;SDS011;30214;52.246;14.408;2023-04-10T07:37:27;29.25;;;19.60;;
44508;SDS011;30214;52.246;14.408;2023-04-10T07:39:55;30.23;;;21.15;;
44508;SDS011;30214;52.246;14.408;2023-04-10T07:42:23;26.42;;;19.08;;
44508;SDS011;30214;52.246;14.408;2023-04-10T07:44:50;25.02;;;19.08;;
44508;SDS011;30214;52.246;14.408;2023-04-10T07:47:18;28.90;;;20.52;;
44508;SDS011;30214;52.246;14.408;2023-04-10T07:49:45;26.75;;;19.95;;
44508;SDS011;30214;52.246;14.408;2023-04-10T07:52:13;27.58;;;19.23;;
44508;SDS011;30214;52.246;14.408;2023-04-10T07:54:40;27.83;;;20.45;;
44508;SDS011;30214;52.246;14.408;2023-04-10T07:57:08;29.55;;;20.58;;
44508;SDS011;30214;52.246;14.408;2023-04-10T07:59:36;28.73;;;20.05;;
44508;SDS011;30214;52.246;14.408;2023-04-10T08:02:03;30.45;;;20.30;;
44508;SDS011;30214;52.246;14.408;2023-04-10T08:04:30;32.25;;;21.95;;
44508;SDS011;30214;52.246;14.408;2023-04-10T08:06:57;35.60;;;22.75;;
44508;SDS011;30214;52.246;14.408;2023-04-10T08:09:24;33.47;;;22.45;;
44508;SDS011;30214;52.246;14.408;2023-04-10T08:11:51;36.90;;;24.45;;
44508;SDS011;30214;52.246;14.408;2023-04-10T08:14:19;37.33;;;23.98;;
44508;SDS011;30214;52.246;14.408;2023-04-10T08:16:46;36.22;;;22.95;;
44508;SDS011;30214;52.246;14.408;2023-04-10T08:19:13;43.00;;;25.27;;
44508;SDS011;30214;52.246;14.408;2023-04-10T08:21:40;43.92;;;26.92;;
44508;SDS011;30214;52.246;14.408;2023-04-10T08:24:07;47.78;;;26.80;;
44508;SDS011;30214;52.246;14.408;2023-04-10T08:26:35;51.88;;;28.85;;
44508;SDS011;30214;52.246;14.408;2023-04-10T08:29:02;55.72;;;29.63;;
44508;SDS011;30214;52.246;14.408;2023-04-10T08:31:30;57.78;;;28.40;;
44508;SDS011;30214;52.246;14.408;2023-04-10T08:33:57;53.92;;;29.38;;
44508;SDS011;30214;52.246;14.408;2023-04-10T08:36:24;50.90;;;27.83;;
44508;SDS011;30214;52.246;14.408;2023-04-10T08:38:51;50.35;;;28.55;;
44508;SDS011;30214;52.246;14.408;2023-04-10T08:41:18;50.20;;;28.13;;
44508;SDS011;30214;52.246;14.408;2023-04-10T08:43:46;50.28;;;28.52;;
44508;SDS011;30214;52.246;14.408;2023-04-10T08:46:14;51.80;;;29.02;;
44508;SDS011;30214;52.246;14.408;2023-04-10T08:48:45;55.53;;;29.48;;
44508;SDS011;30214;52.246;14.408;2023-04-10T08:51:19;50.13;;;28.27;;
44508;SDS011;30214;52.246;14.408;2023-04-10T08:53:49;51.65;;;28.00;;
44508;SDS011;30214;52.246;14.408;2023-04-10T08:56:20;48.38;;;28.05;;
44508;SDS011;30214;52.246;14.408;2023-04-10T08:58:48;49.85;;;27.08;;
44508;SDS011;30214;52.246;14.408;2023-04-10T09:01:17;50.67;;;28.98;;
44508;SDS011;30214;52.246;14.408;2023-04-10T09:03:48;52.70;;;29.73;;
44508;SDS011;30214;52.246;14.408;2023-04-10T09:06:15;51.65;;;28.60;;
44508;SDS011;30214;52.246;14.408;2023-04-10T09:08:42;51.58;;;27.58;;
44508;SDS011;30214;52.246;14.408;2023-04-10T09:11:09;49.13;;;28.08;;
44508;SDS011;30214;52.246;14.408;2023-04-10T09:13:37;49.70;;;28.90;;
44508;SDS011;30214;52.246;14.408;2023-04-10T09:16:06;52.50;;;28.25;;
44508;SDS011;30214;52.246;14.408;2023-04-10T09:18:41;52.28;;;29.23;;
44508;SDS011;30214;52.246;14.408;2023-04-10T09:21:13;49.00;;;28.20;;
44508;SDS011;30214;52.246;14.408;2023-04-10T09:23:43;47.08;;;27.40;;
44508;SDS011;30214;52.246;14.408;2023-04-10T09:26:22;47.10;;;26.83;;
44508;SDS011;30214;52.246;14.408;2023-04-10T09:28:55;47.83;;;27.50;;
44508;SDS011;30214;52.246;14.408;2023-04-10T09:31:27;46.53;;;25.25;;
44508;SDS011;30214;52.246;14.408;2023-04-10T09:34:05;42.70;;;25.40;;
44508;SDS011;30214;52.246;14.408;2023-04-10T09:36:37;40.50;;;24.10;;
44508;SDS011;30214;52.246;14.408;2023-04-10T09:39:06;42.50;;;25.05;;
44508;SDS011;30214;52.246;14.408;2023-04-10T09:41:45;41.67;;;24.98;;
44508;SDS011;30214;52.246;14.408;2023-04-10T09:44:16;39.10;;;23.27;;
44508;SDS011;30214;52.246;14.408;2023-04-10T09:46:45;39.38;;;24.23;;
44508;SDS011;30214;52.246;14.408;2023-04-10T09:49:13;36.83;;;22.38;;
44508;SDS011;30214;52.246;14.408;2023-04-10T09:51:42;34.63;;;21.35;;
44508;SDS011;30214;52.246;14.408;2023-04-10T09:54:11;31.23;;;20.88;;
44508;SDS011;30214;52.246;14.408;2023-04-10T09:56:38;31.65;;;20.08;;
44508;SDS011;30214;52.246;14.408;2023-04-10T09:59:06;31.65;;;21.10;;
44508;SDS011;30214;52.246;14.408;2023-04-10T10:01:34;28.00;;;18.95;;
44508;SDS011;30214;52.246;14.408;2023-04-10T10:04:05;30.52;;;19.17;;
44508;SDS011;30214;52.246;14.408;2023-04-10T10:06:35;31.98;;;19.35;;
44508;SDS011;30214;52.246;14.408;2023-04-10T10:09:05;30.70;;;19.80;;
44508;SDS011;30214;52.246;14.408;2023-04-10T10:11:33;28.58;;;19.15;;
44508;SDS011;30214;52.246;14.408;2023-04-10T10:14:01;28.20;;;19.35;;
44508;SDS011;30214;52.246;14.408;2023-04-10T10:16:33;27.85;;;19.95;;
44508;SDS011;30214;52.246;14.408;2023-04-10T10:19:05;27.25;;;19.50;;
44508;SDS011;30214;52.246;14.408;2023-04-10T10:21:38;31.42;;;20.08;;
44508;SDS011;30214;52.246;14.408;2023-04-10T10:24:09;29.02;;;19.08;;
44508;SDS011;30214;52.246;14.408;2023-04-10T10:26:39;25.55;;;18.67;;
44508;SDS011;30214;52.246;14.408;2023-04-10T10:29:07;31.60;;;20.52;;
44508;SDS011;30214;52.246;14.408;2023-04-10T10:31:37;34.85;;;21.23;;
44508;SDS011;30214;52.246;14.408;2023-04-10T10:34:05;29.48;;;19.85;;
44508;SDS011;30214;52.246;14.408;2023-04-10T10:36:33;26.88;;;19.08;;
44508;SDS011;30214;52.246;14.408;2023-04-10T10:39:07;27.58;;;17.40;;
44508;SDS011;30214;52.246;14.408;2023-04-10T10:41:48;23.95;;;17.33;;
44508;SDS011;30214;52.246;14.408;2023-04-10T10:44:25;25.27;;;16.23;;
44508;SDS011;30214;52.246;14.408;2023-04-10T10:47:05;26.05;;;17.40;;
44508;SDS011;30214;52.246;14.408;2023-04-10T10:49:53;30.35;;;19.35;;
44508;SDS011;30214;52.246;14.408;2023-04-10T10:55:27;27.40;;;18.73;;
44508;SDS011;30214;52.246;14.408;2023-04-10T10:58:00;28.35;;;18.48;;
44508;SDS011;30214;52.246;14.408;2023-04-10T11:03:31;31.67;;;18.95;;
44508;SDS011;30214;52.246;14.408;2023-04-10T11:05:59;25.50;;;18.60;;
44508;SDS011;30214;52.246;14.408;2023-04-10T11:08:38;29.52;;;19.95;;
44508;SDS011;30214;52.246;14.408;2023-04-10T11:11:12;28.45;;;19.92;;
44508;SDS011;30214;52.246;14.408;2023-04-10T11:14:10;31.75;;;20.48;;
44508;SDS011;30214;52.246;14.408;2023-04-10T11:16:42;29.17;;;19.13;;
44508;SDS011;30214;52.246;14.408;2023-04-10T11:19:11;32.47;;;20.00;;
44508;SDS011;30214;52.246;14.408;2023-04-10T11:22:00;29.17;;;19.52;;
44508;SDS011;30214;52.246;14.408;2023-04-10T11:27:43;30.13;;;19.70;;
44508;SDS011;30214;52.246;14.408;2023-04-10T11:30:25;28.30;;;19.50;;
44508;SDS011;30214;52.246;14.408;2023-04-10T11:33:01;28.73;;;18.33;;
44508;SDS011;30214;52.246;14.408;2023-04-10T11:35:30;27.25;;;19.10;;
44508;SDS011;30214;52.246;14.408;2023-04-10T11:38:11;26.90;;;17.70;;
44508;SDS011;30214;52.246;14.408;2023-04-10T11:40:52;27.45;;;19.67;;
44508;SDS011;30214;52.246;14.408;2023-04-10T11:43:24;26.70;;;18.13;;
44508;SDS011;30214;52.246;14.408;2023-04-10T11:45:57;27.15;;;18.20;;
44508;SDS011;30214;52.246;14.408;2023-04-10T11:48:30;25.50;;;17.98;;
44508;SDS011;30214;52.246;14.408;2023-04-10T11:50:57;24.48;;;16.60;;
44508;SDS011;30214;52.246;14.408;2023-04-10T11:53:26;24.10;;;16.20;;
44508;SDS011;30214;52.246;14.408;2023-04-10T11:55:54;23.50;;;15.98;;
44508;SDS011;30214;52.246;14.408;2023-04-10T11:58:22;22.88;;;16.05;;
44508;SDS011;30214;52.246;14.408;2023-04-10T12:00:59;19.42;;;14.95;;
44508;SDS011;30214;52.246;14.408;2023-04-10T12:03:32;22.48;;;14.75;;
44508;SDS011;30214;52.246;14.408;2023-04-10T12:06:05;20.70;;;14.82;;
44508;SDS011;30214;52.246;14.408;2023-04-10T12:08:36;21.67;;;13.43;;
44508;SDS011;30214;52.246;14.408;2023-04-10T12:11:06;16.58;;;11.38;;
44508;SDS011;30214;52.246;14.408;2023-04-10T12:13:35;17.13;;;11.15;;
44508;SDS011;30214;52.246;14.408;2023-04-10T12:16:03;14.45;;;10.55;;
44508;SDS011;30214;52.246;14.408;2023-04-10T12:18:33;14.15;;;11.15;;
44508;SDS011;30214;52.246;14.408;2023-04-10T12:21:03;17.33;;;11.02;;
44508;SDS011;30214;52.246;14.408;2023-04-10T12:23:31;15.20;;;9.88;;
44508;SDS011;30214;52.246;14.408;2023-04-10T12:26:12;13.50;;;10.02;;
44508;SDS011;30214;52.246;14.408;2023-04-10T12:28:50;13.27;;;9.50;;
44508;SDS011;30214;52.246;14.408;2023-04-10T12:31:24;16.27;;;10.35;;
44508;SDS011;30214;52.246;14.408;2023-04-10T12:33:53;13.88;;;9.57;;
44508;SDS011;30214;52.246;14.408;2023-04-10T12:36:22;12.77;;;10.02;;
44508;SDS011;30214;52.246;14.408;2023-04-10T12:38:53;13.65;;;9.82;;
44508;SDS011;30214;52.246;14.408;2023-04-10T12:41:21;13.85;;;9.00;;
44508;SDS011;30214;52.246;14.408;2023-04-10T12:43:52;12.60;;;9.48;;
44508;SDS011;30214;52.246;14.408;2023-04-10T12:46:32;13.10;;;10.05;;
44508;SDS011;30214;52.246;14.408;2023-04-10T12:49:07;12.90;;;9.43;;
44508;SDS011;30214;52.246;14.408;2023-04-10T12:51:46;12.05;;;8.75;;
44508;SDS011;30214;52.246;14.408;2023-04-10T12:54:27;12.85;;;9.27;;
44508;SDS011;30214;52.246;14.408;2023-04-10T12:56:56;10.70;;;8.07;;
44508;SDS011;30214;52.246;14.408;2023-04-10T12:59:25;12.23;;;9.32;;
44508;SDS011;30214;52.246;14.408;2023-04-10T13:01:52;11.25;;;8.40;;
44508;SDS011;30214;52.246;14.408;2023-04-10T13:04:20;12.27;;;9.07;;
44508;SDS011;30214;52.246;14.408;2023-04-10T13:06:47;9.73;;;7.80;;
44508;SDS011;30214;52.246;14.408;2023-04-10T13:09:17;11.05;;;8.23;;
44508;SDS011;30214;52.246;14.408;2023-04-10T13:11:45;9.95;;;7.50;;
44508;SDS011;30214;52.246;14.408;2023-04-10T13:14:12;10.80;;;7.30;;
44508;SDS011;30214;52.246;14.408;2023-04-10T13:16:40;12.85;;;8.60;;
44508;SDS011;30214;52.246;14.408;2023-04-10T13:19:07;10.45;;;8.07;;
44508;SDS011;30214;52.246;14.408;2023-04-10T13:21:34;10.38;;;8.38;;
44508;SDS011;30214;52.246;14.408;2023-04-10T13:24:01;13.20;;;8.55;;
44508;SDS011;30214;52.246;14.408;2023-04-10T13:26:29;10.27;;;7.90;;
44508;SDS011;30214;52.246;14.408;2023-04-10T13:28:56;11.20;;;8.50;;
44508;SDS011;30214;52.246;14.408;2023-04-10T13:31:23;11.73;;;8.82;;
44508;SDS011;30214;52.246;14.408;2023-04-10T13:33:51;9.80;;;8.65;;
44508;SDS011;30214;52.246;14.408;2023-04-10T13:36:18;11.27;;;9.00;;
44508;SDS011;30214;52.246;14.408;2023-04-10T13:38:45;11.50;;;9.32;;
44508;SDS011;30214;52.246;14.408;2023-04-10T13:41:12;11.25;;;8.48;;
44508;SDS011;30214;52.246;14.408;2023-04-10T13:43:39;12.90;;;8.20;;
44508;SDS011;30214;52.246;14.408;2023-04-10T13:46:06;9.80;;;7.88;;
44508;SDS011;30214;52.246;14.408;2023-04-10T13:48:33;11.15;;;8.38;;
44508;SDS011;30214;52.246;14.408;2023-04-10T13:51:06;9.85;;;7.65;;
44508;SDS011;30214;52.246;14.408;2023-04-10T13:53:34;13.27;;;8.40;;
44508;SDS011;30214;52.246;14.408;2023-04-10T13:56:01;10.13;;;8.10;;
44508;SDS011;30214;52.246;14.408;2023-04-10T13:58:28;12.48;;;8.40;;
44508;SDS011;30214;52.246;14.408;2023-04-10T14:00:56;9.65;;;7.80;;
44508;SDS011;30214;52.246;14.408;2023-04-10T14:03:23;12.05;;;8.35;;
44508;SDS011;30214;52.246;14.408;2023-04-10T14:05:50;10.15;;;7.88;;
44508;SDS011;30214;52.246;14.408;2023-04-10T14:08:19;11.00;;;8.07;;
44508;SDS011;30214;52.246;14.408;2023-04-10T14:10:46;10.27;;;8.35;;
44508;SDS011;30214;52.246;14.408;2023-04-10T14:13:14;11.02;;;8.40;;
44508;SDS011;30214;52.246;14.408;2023-04-10T14:15:41;9.77;;;8.15;;
44508;SDS011;30214;52.246;14.408;2023-04-10T14:18:09;9.13;;;7.35;;
44508;SDS011;30214;52.246;14.408;2023-04-10T14:20:36;9.32;;;7.53;;
44508;SDS011;30214;52.246;14.408;2023-04-10T14:23:06;12.63;;;7.90;;
44508;SDS011;30214;52.246;14.408;2023-04-10T14:25:34;10.80;;;8.23;;
44508;SDS011;30214;52.246;14.408;2023-04-10T14:28:01;9.65;;;7.57;;
44508;SDS011;30214;52.246;14.408;2023-04-10T14:30:28;10.18;;;7.30;;
44508;SDS011;30214;52.246;14.408;2023-04-10T14:32:57;9.65;;;7.80;;
44508;SDS011;30214;52.246;14.408;2023-04-10T14:35:24;8.85;;;7.57;;
44508;SDS011;30214;52.246;14.408;2023-04-10T14:37:51;8.82;;;7.10;;
44508;SDS011;30214;52.246;14.408;2023-04-10T14:40:19;8.80;;;7.20;;
44508;SDS011;30214;52.246;14.408;2023-04-10T14:42:48;11.00;;;7.18;;
44508;SDS011;30214;52.246;14.408;2023-04-10T14:45:15;7.82;;;6.43;;
44508;SDS011;30214;52.246;14.408;2023-04-10T14:47:43;8.30;;;6.32;;
44508;SDS011;30214;52.246;14.408;2023-04-10T14:50:11;7.50;;;6.45;;
44508;SDS011;30214;52.246;14.408;2023-04-10T14:52:38;9.43;;;6.60;;